sensor_id;sensor_type;location;lat;lon;timestamp;P1;durP1;ratioP1;P2;durP2;ratioP2
77466;SDS011;66564;42.482;25.548;2024-02-16T00:02:00;10.48;;;6.32;;
77466;SDS011;66564;42.482;25.548;2024-02-16T00:04:26;10.82;;;5.97;;
77466;SDS011;66564;42.482;25.548;2024-02-16T00:06:52;10.32;;;6.43;;
77466;SDS011;66564;42.482;25.548;2024-02-16T00:09:17;10.63;;;6.00;;
77466;SDS011;66564;42.482;25.548;2024-02-16T00:11:43;9.35;;;5.75;;
77466;SDS011;66564;42.482;25.548;2024-02-16T00:14:09;13.88;;;6.13;;
77466;SDS011;66564;42.482;25.548;2024-02-16T00:16:34;8.70;;;5.78;;
77466;SDS011;66564;42.482;25.548;2024-02-16T00:19:00;7.47;;;5.10;;
77466;SDS011;66564;42.482;25.548;2024-02-16T00:21:25;10.25;;;5.80;;
77466;SDS011;66564;42.482;25.548;2024-02-16T00:23:51;6.65;;;4.68;;
77466;SDS011;66564;42.482;25.548;2024-02-16T00:26:16;8.25;;;5.05;;
77466;SDS011;66564;42.482;25.548;2024-02-16T00:28:42;9.68;;;5.53;;
77466;SDS011;66564;42.482;25.548;2024-02-16T00:31:07;8.98;;;5.28;;
77466;SDS011;66564;42.482;25.548;2024-02-16T00:33:33;8.23;;;5.15;;
77466;SDS011;66564;42.482;25.548;2024-02-16T00:35:58;9.80;;;5.35;;
77466;SDS011;66564;42.482;25.548;2024-02-16T00:38:24;11.32;;;5.32;;
77466;SDS011;66564;42.482;25.548;2024-02-16T00:40:49;9.32;;;5.80;;
77466;SDS011;66564;42.482;25.548;2024-02-16T00:43:15;8.23;;;5.43;;
77466;SDS011;66564;42.482;25.548;2024-02-16T00:45:41;11.00;;;5.35;;
77466;SDS011;66564;42.482;25.548;2024-02-16T00:48:09;9.23;;;5.13;;
77466;SDS011;66564;42.482;25.548;2024-02-16T00:50:34;11.75;;;5.95;;
77466;SDS011;66564;42.482;25.548;2024-02-16T00:53:00;9.23;;;5.47;;
77466;SDS011;66564;42.482;25.548;2024-02-16T00:55:26;9.20;;;4.75;;
77466;SDS011;66564;42.482;25.548;2024-02-16T00:57:51;6.65;;;4.47;;
77466;SDS011;66564;42.482;25.548;2024-02-16T01:00:17;8.40;;;5.72;;
77466;SDS011;66564;42.482;25.548;2024-02-16T01:02:44;10.77;;;5.90;;
77466;SDS011;66564;42.482;25.548;2024-02-16T01:05:09;9.57;;;5.35;;
77466;SDS011;66564;42.482;25.548;2024-02-16T01:07:36;8.60;;;5.70;;
77466;SDS011;66564;42.482;25.548;2024-02-16T01:10:07;10.25;;;6.20;;
77466;SDS011;66564;42.482;25.548;2024-02-16T01:12:33;15.18;;;5.90;;
77466;SDS011;66564;42.482;25.548;2024-02-16T01:14:58;11.15;;;6.00;;
77466;SDS011;66564;42.482;25.548;2024-02-16T01:17:24;9.05;;;5.85;;
77466;SDS011;66564;42.482;25.548;2024-02-16T01:19:50;8.57;;;5.85;;
77466;SDS011;66564;42.482;25.548;2024-02-16T01:22:15;9.18;;;5.82;;
77466;SDS011;66564;42.482;25.548;2024-02-16T01:24:41;15.25;;;7.22;;
77466;SDS011;66564;42.482;25.548;2024-02-16T01:27:07;14.32;;;6.00;;
77466;SDS011;66564;42.482;25.548;2024-02-16T01:29:32;11.05;;;5.57;;
77466;SDS011;66564;42.482;25.548;2024-02-16T01:31:58;10.63;;;6.65;;
77466;SDS011;66564;42.482;25.548;2024-02-16T01:34:23;11.82;;;6.20;;
77466;SDS011;66564;42.482;25.548;2024-02-16T01:36:49;11.20;;;5.97;;
77466;SDS011;66564;42.482;25.548;2024-02-16T01:39:14;9.93;;;7.00;;
77466;SDS011;66564;42.482;25.548;2024-02-16T01:41:40;9.15;;;5.78;;
77466;SDS011;66564;42.482;25.548;2024-02-16T01:44:05;9.32;;;6.03;;
77466;SDS011;66564;42.482;25.548;2024-02-16T01:46:31;10.77;;;5.80;;
77466;SDS011;66564;42.482;25.548;2024-02-16T01:48:58;11.90;;;7.22;;
77466;SDS011;66564;42.482;25.548;2024-02-16T01:51:23;11.63;;;7.57;;
77466;SDS011;66564;42.482;25.548;2024-02-16T01:53:51;9.77;;;6.85;;
77466;SDS011;66564;42.482;25.548;2024-02-16T01:56:17;10.60;;;7.45;;
77466;SDS011;66564;42.482;25.548;2024-02-16T01:58:45;12.95;;;7.15;;
77466;SDS011;66564;42.482;25.548;2024-02-16T02:01:11;10.55;;;6.75;;
77466;SDS011;66564;42.482;25.548;2024-02-16T02:03:37;10.50;;;6.57;;
77466;SDS011;66564;42.482;25.548;2024-02-16T02:06:02;10.90;;;6.80;;
77466;SDS011;66564;42.482;25.548;2024-02-16T02:08:28;10.65;;;6.72;;
77466;SDS011;66564;42.482;25.548;2024-02-16T02:10:53;9.27;;;6.25;;
77466;SDS011;66564;42.482;25.548;2024-02-16T02:13:19;12.48;;;6.50;;
77466;SDS011;66564;42.482;25.548;2024-02-16T02:15:47;11.27;;;6.57;;
77466;SDS011;66564;42.482;25.548;2024-02-16T02:18:12;12.15;;;6.45;;
77466;SDS011;66564;42.482;25.548;2024-02-16T02:20:38;12.25;;;7.20;;
77466;SDS011;66564;42.482;25.548;2024-02-16T02:23:04;11.93;;;7.60;;
77466;SDS011;66564;42.482;25.548;2024-02-16T02:25:29;11.85;;;6.93;;
77466;SDS011;66564;42.482;25.548;2024-02-16T02:27:55;16.42;;;7.32;;
77466;SDS011;66564;42.482;25.548;2024-02-16T02:30:21;11.98;;;6.53;;
77466;SDS011;66564;42.482;25.548;2024-02-16T02:32:47;13.43;;;7.03;;
77466;SDS011;66564;42.482;25.548;2024-02-16T02:35:15;9.10;;;6.13;;
77466;SDS011;66564;42.482;25.548;2024-02-16T02:37:42;9.82;;;7.03;;
77466;SDS011;66564;42.482;25.548;2024-02-16T02:40:08;10.25;;;6.10;;
77466;SDS011;66564;42.482;25.548;2024-02-16T02:42:34;10.55;;;6.25;;
77466;SDS011;66564;42.482;25.548;2024-02-16T02:45:01;9.40;;;6.30;;
77466;SDS011;66564;42.482;25.548;2024-02-16T02:47:27;10.13;;;6.60;;
77466;SDS011;66564;42.482;25.548;2024-02-16T02:49:52;10.98;;;6.05;;
77466;SDS011;66564;42.482;25.548;2024-02-16T02:52:18;11.32;;;6.30;;
77466;SDS011;66564;42.482;25.548;2024-02-16T02:54:44;9.65;;;5.85;;
77466;SDS011;66564;42.482;25.548;2024-02-16T02:57:09;8.95;;;6.38;;
77466;SDS011;66564;42.482;25.548;2024-02-16T02:59:35;10.45;;;6.00;;
77466;SDS011;66564;42.482;25.548;2024-02-16T03:02:00;11.60;;;5.85;;
77466;SDS011;66564;42.482;25.548;2024-02-16T03:04:26;9.70;;;6.22;;
77466;SDS011;66564;42.482;25.548;2024-02-16T03:06:51;10.07;;;5.85;;
77466;SDS011;66564;42.482;25.548;2024-02-16T03:09:17;9.52;;;6.07;;
77466;SDS011;66564;42.482;25.548;2024-02-16T03:11:43;8.77;;;5.85;;
77466;SDS011;66564;42.482;25.548;2024-02-16T03:14:08;10.07;;;6.03;;
77466;SDS011;66564;42.482;25.548;2024-02-16T03:16:34;9.93;;;5.55;;
77466;SDS011;66564;42.482;25.548;2024-02-16T03:18:59;10.25;;;5.60;;
77466;SDS011;66564;42.482;25.548;2024-02-16T03:21:25;13.48;;;6.10;;
77466;SDS011;66564;42.482;25.548;2024-02-16T03:23:50;10.57;;;6.38;;
77466;SDS011;66564;42.482;25.548;2024-02-16T03:26:16;10.18;;;5.25;;
77466;SDS011;66564;42.482;25.548;2024-02-16T03:28:43;8.75;;;5.57;;
77466;SDS011;66564;42.482;25.548;2024-02-16T03:31:21;11.82;;;6.57;;
77466;SDS011;66564;42.482;25.548;2024-02-16T03:33:48;8.88;;;5.68;;
77466;SDS011;66564;42.482;25.548;2024-02-16T03:36:15;10.10;;;5.85;;
77466;SDS011;66564;42.482;25.548;2024-02-16T03:38:44;9.25;;;6.15;;
77466;SDS011;66564;42.482;25.548;2024-02-16T03:41:13;9.20;;;6.07;;
77466;SDS011;66564;42.482;25.548;2024-02-16T03:43:39;7.90;;;5.25;;
77466;SDS011;66564;42.482;25.548;2024-02-16T03:46:05;8.80;;;5.65;;
77466;SDS011;66564;42.482;25.548;2024-02-16T03:48:30;9.80;;;5.75;;
77466;SDS011;66564;42.482;25.548;2024-02-16T03:50:56;8.65;;;5.93;;
77466;SDS011;66564;42.482;25.548;2024-02-16T03:53:21;8.77;;;5.65;;
77466;SDS011;66564;42.482;25.548;2024-02-16T03:55:48;9.00;;;5.28;;
77466;SDS011;66564;42.482;25.548;2024-02-16T03:58:14;8.82;;;5.70;;
77466;SDS011;66564;42.482;25.548;2024-02-16T04:00:39;8.43;;;5.50;;
77466;SDS011;66564;42.482;25.548;2024-02-16T04:03:08;8.50;;;5.30;;
77466;SDS011;66564;42.482;25.548;2024-02-16T04:05:34;8.52;;;5.30;;
77466;SDS011;66564;42.482;25.548;2024-02-16T04:08:00;9.05;;;5.45;;
77466;SDS011;66564;42.482;25.548;2024-02-16T04:10:28;8.27;;;5.13;;
77466;SDS011;66564;42.482;25.548;2024-02-16T04:12:54;10.00;;;5.65;;
77466;SDS011;66564;42.482;25.548;2024-02-16T04:15:19;9.13;;;5.03;;
77466;SDS011;66564;42.482;25.548;2024-02-16T04:17:45;8.13;;;5.25;;
77466;SDS011;66564;42.482;25.548;2024-02-16T04:20:10;7.93;;;4.28;;
77466;SDS011;66564;42.482;25.548;2024-02-16T04:22:36;6.90;;;4.80;;
77466;SDS011;66564;42.482;25.548;2024-02-16T04:25:03;6.65;;;4.53;;
77466;SDS011;66564;42.482;25.548;2024-02-16T04:27:29;6.70;;;4.72;;
77466;SDS011;66564;42.482;25.548;2024-02-16T04:29:55;9.25;;;4.85;;
77466;SDS011;66564;42.482;25.548;2024-02-16T04:32:20;7.72;;;4.82;;
77466;SDS011;66564;42.482;25.548;2024-02-16T04:34:46;7.38;;;4.68;;
77466;SDS011;66564;42.482;25.548;2024-02-16T04:37:12;8.93;;;5.22;;
77466;SDS011;66564;42.482;25.548;2024-02-16T04:39:38;9.48;;;4.93;;
77466;SDS011;66564;42.482;25.548;2024-02-16T04:42:03;6.60;;;4.60;;
77466;SDS011;66564;42.482;25.548;2024-02-16T04:44:29;6.18;;;4.40;;
77466;SDS011;66564;42.482;25.548;2024-02-16T04:46:55;8.32;;;4.78;;
77466;SDS011;66564;42.482;25.548;2024-02-16T04:49:20;7.93;;;4.85;;
77466;SDS011;66564;42.482;25.548;2024-02-16T04:51:46;8.05;;;4.95;;
77466;SDS011;66564;42.482;25.548;2024-02-16T04:54:12;7.25;;;4.47;;
77466;SDS011;66564;42.482;25.548;2024-02-16T04:56:38;7.47;;;4.03;;
77466;SDS011;66564;42.482;25.548;2024-02-16T04:59:04;6.45;;;4.47;;
77466;SDS011;66564;42.482;25.548;2024-02-16T05:01:30;9.52;;;4.88;;
77466;SDS011;66564;42.482;25.548;2024-02-16T05:03:57;6.97;;;4.53;;
77466;SDS011;66564;42.482;25.548;2024-02-16T05:06:23;7.10;;;4.80;;
77466;SDS011;66564;42.482;25.548;2024-02-16T05:08:49;17.92;;;5.32;;
77466;SDS011;66564;42.482;25.548;2024-02-16T05:11:15;41.15;;;6.20;;
77466;SDS011;66564;42.482;25.548;2024-02-16T05:13:40;9.55;;;4.97;;
77466;SDS011;66564;42.482;25.548;2024-02-16T05:16:10;9.40;;;4.80;;
77466;SDS011;66564;42.482;25.548;2024-02-16T05:18:36;8.35;;;4.93;;
77466;SDS011;66564;42.482;25.548;2024-02-16T05:21:03;12.07;;;4.88;;
77466;SDS011;66564;42.482;25.548;2024-02-16T05:23:28;9.52;;;5.05;;
77466;SDS011;66564;42.482;25.548;2024-02-16T05:25:54;8.20;;;4.72;;
77466;SDS011;66564;42.482;25.548;2024-02-16T05:28:19;8.18;;;4.78;;
77466;SDS011;66564;42.482;25.548;2024-02-16T05:30:45;13.10;;;5.38;;
77466;SDS011;66564;42.482;25.548;2024-02-16T05:33:11;9.60;;;4.00;;
77466;SDS011;66564;42.482;25.548;2024-02-16T05:35:36;7.32;;;5.00;;
77466;SDS011;66564;42.482;25.548;2024-02-16T05:38:05;7.82;;;4.43;;
77466;SDS011;66564;42.482;25.548;2024-02-16T05:40:46;8.75;;;4.53;;
77466;SDS011;66564;42.482;25.548;2024-02-16T05:43:19;6.72;;;5.03;;
77466;SDS011;66564;42.482;25.548;2024-02-16T05:45:45;8.18;;;4.72;;
77466;SDS011;66564;42.482;25.548;2024-02-16T05:48:11;9.90;;;5.20;;
77466;SDS011;66564;42.482;25.548;2024-02-16T05:50:37;8.95;;;5.22;;
77466;SDS011;66564;42.482;25.548;2024-02-16T05:53:03;8.50;;;4.97;;
77466;SDS011;66564;42.482;25.548;2024-02-16T05:55:28;11.20;;;5.35;;
77466;SDS011;66564;42.482;25.548;2024-02-16T05:57:54;10.18;;;5.63;;
77466;SDS011;66564;42.482;25.548;2024-02-16T06:00:20;8.48;;;5.68;;
77466;SDS011;66564;42.482;25.548;2024-02-16T06:02:47;8.90;;;5.35;;
77466;SDS011;66564;42.482;25.548;2024-02-16T06:05:12;9.27;;;5.95;;
77466;SDS011;66564;42.482;25.548;2024-02-16T06:07:38;9.70;;;5.97;;
77466;SDS011;66564;42.482;25.548;2024-02-16T06:10:03;7.68;;;5.05;;
77466;SDS011;66564;42.482;25.548;2024-02-16T06:12:32;9.95;;;6.18;;
77466;SDS011;66564;42.482;25.548;2024-02-16T06:14:58;9.32;;;5.88;;
77466;SDS011;66564;42.482;25.548;2024-02-16T06:17:24;10.00;;;5.78;;
77466;SDS011;66564;42.482;25.548;2024-02-16T06:19:50;10.43;;;6.00;;
77466;SDS011;66564;42.482;25.548;2024-02-16T06:22:15;10.63;;;5.05;;
77466;SDS011;66564;42.482;25.548;2024-02-16T06:24:41;30.10;;;5.45;;
77466;SDS011;66564;42.482;25.548;2024-02-16T06:27:07;9.90;;;4.18;;
77466;SDS011;66564;42.482;25.548;2024-02-16T06:29:35;9.85;;;4.32;;
77466;SDS011;66564;42.482;25.548;2024-02-16T06:32:04;10.68;;;4.57;;
77466;SDS011;66564;42.482;25.548;2024-02-16T06:34:37;10.20;;;5.22;;
77466;SDS011;66564;42.482;25.548;2024-02-16T06:37:02;12.60;;;4.68;;
77466;SDS011;66564;42.482;25.548;2024-02-16T06:39:28;9.02;;;4.53;;
77466;SDS011;66564;42.482;25.548;2024-02-16T06:41:56;10.90;;;5.00;;
77466;SDS011;66564;42.482;25.548;2024-02-16T06:44:21;7.32;;;5.15;;
77466;SDS011;66564;42.482;25.548;2024-02-16T06:46:47;19.63;;;5.35;;
77466;SDS011;66564;42.482;25.548;2024-02-16T06:49:12;8.60;;;4.40;;
77466;SDS011;66564;42.482;25.548;2024-02-16T06:51:38;9.43;;;5.00;;
77466;SDS011;66564;42.482;25.548;2024-02-16T06:54:03;8.77;;;5.20;;
77466;SDS011;66564;42.482;25.548;2024-02-16T06:56:29;7.55;;;4.32;;
77466;SDS011;66564;42.482;25.548;2024-02-16T06:58:58;12.38;;;4.72;;
77466;SDS011;66564;42.482;25.548;2024-02-16T07:01:24;9.52;;;4.40;;
77466;SDS011;66564;42.482;25.548;2024-02-16T07:03:52;5.70;;;4.35;;
77466;SDS011;66564;42.482;25.548;2024-02-16T07:06:17;6.38;;;4.45;;
77466;SDS011;66564;42.482;25.548;2024-02-16T07:08:43;10.68;;;4.55;;
77466;SDS011;66564;42.482;25.548;2024-02-16T07:11:11;6.50;;;4.47;;
77466;SDS011;66564;42.482;25.548;2024-02-16T07:13:38;6.28;;;3.85;;
77466;SDS011;66564;42.482;25.548;2024-02-16T07:16:08;6.00;;;3.83;;
77466;SDS011;66564;42.482;25.548;2024-02-16T07:18:33;6.95;;;4.43;;
77466;SDS011;66564;42.482;25.548;2024-02-16T07:20:59;5.45;;;3.72;;
77466;SDS011;66564;42.482;25.548;2024-02-16T07:23:25;6.70;;;4.28;;
77466;SDS011;66564;42.482;25.548;2024-02-16T07:25:51;5.40;;;3.85;;
77466;SDS011;66564;42.482;25.548;2024-02-16T07:28:16;7.22;;;4.05;;
77466;SDS011;66564;42.482;25.548;2024-02-16T07:30:43;8.82;;;4.07;;
77466;SDS011;66564;42.482;25.548;2024-02-16T07:33:08;5.45;;;3.60;;
77466;SDS011;66564;42.482;25.548;2024-02-16T07:35:34;5.53;;;4.03;;
77466;SDS011;66564;42.482;25.548;2024-02-16T07:38:03;8.90;;;4.95;;
77466;SDS011;66564;42.482;25.548;2024-02-16T07:40:29;14.73;;;6.07;;
77466;SDS011;66564;42.482;25.548;2024-02-16T07:42:55;6.18;;;4.60;;
77466;SDS011;66564;42.482;25.548;2024-02-16T07:45:21;13.27;;;6.00;;
77466;SDS011;66564;42.482;25.548;2024-02-16T07:47:47;7.50;;;4.95;;
77466;SDS011;66564;42.482;25.548;2024-02-16T07:50:12;9.50;;;5.43;;
77466;SDS011;66564;42.482;25.548;2024-02-16T07:52:38;18.20;;;5.13;;
77466;SDS011;66564;42.482;25.548;2024-02-16T07:55:09;9.80;;;4.18;;
77466;SDS011;66564;42.482;25.548;2024-02-16T07:57:34;10.77;;;5.55;;
77466;SDS011;66564;42.482;25.548;2024-02-16T08:00:01;8.27;;;5.15;;
77466;SDS011;66564;42.482;25.548;2024-02-16T08:02:28;10.57;;;5.65;;
77466;SDS011;66564;42.482;25.548;2024-02-16T08:04:54;8.95;;;5.32;;
77466;SDS011;66564;42.482;25.548;2024-02-16T08:07:19;10.02;;;5.05;;
77466;SDS011;66564;42.482;25.548;2024-02-16T08:09:45;8.60;;;4.95;;
77466;SDS011;66564;42.482;25.548;2024-02-16T08:12:11;19.98;;;6.10;;
77466;SDS011;66564;42.482;25.548;2024-02-16T08:14:38;9.93;;;5.85;;
77466;SDS011;66564;42.482;25.548;2024-02-16T08:17:07;12.82;;;5.15;;
77466;SDS011;66564;42.482;25.548;2024-02-16T08:19:34;9.80;;;5.28;;
77466;SDS011;66564;42.482;25.548;2024-02-16T08:22:01;7.78;;;4.70;;
77466;SDS011;66564;42.482;25.548;2024-02-16T08:24:34;8.65;;;5.00;;
77466;SDS011;66564;42.482;25.548;2024-02-16T08:27:00;8.60;;;4.93;;
77466;SDS011;66564;42.482;25.548;2024-02-16T08:29:26;7.55;;;4.97;;
77466;SDS011;66564;42.482;25.548;2024-02-16T08:31:52;11.80;;;5.35;;
77466;SDS011;66564;42.482;25.548;2024-02-16T08:34:19;8.45;;;4.65;;
77466;SDS011;66564;42.482;25.548;2024-02-16T08:36:45;9.57;;;4.75;;
77466;SDS011;66564;42.482;25.548;2024-02-16T08:39:12;8.88;;;5.13;;
77466;SDS011;66564;42.482;25.548;2024-02-16T08:41:38;11.45;;;4.93;;
77466;SDS011;66564;42.482;25.548;2024-02-16T08:44:03;8.05;;;4.68;;
77466;SDS011;66564;42.482;25.548;2024-02-16T08:46:29;11.20;;;4.25;;
77466;SDS011;66564;42.482;25.548;2024-02-16T08:48:55;9.15;;;4.68;;
77466;SDS011;66564;42.482;25.548;2024-02-16T08:51:21;18.13;;;5.45;;
77466;SDS011;66564;42.482;25.548;2024-02-16T08:53:46;13.30;;;4.65;;
77466;SDS011;66564;42.482;25.548;2024-02-16T08:56:12;9.05;;;5.00;;
77466;SDS011;66564;42.482;25.548;2024-02-16T08:58:38;8.23;;;5.10;;
77466;SDS011;66564;42.482;25.548;2024-02-16T09:01:04;6.65;;;4.10;;
77466;SDS011;66564;42.482;25.548;2024-02-16T09:03:30;8.90;;;5.15;;
77466;SDS011;66564;42.482;25.548;2024-02-16T09:06:02;8.35;;;5.05;;
77466;SDS011;66564;42.482;25.548;2024-02-16T09:08:27;8.75;;;4.15;;
77466;SDS011;66564;42.482;25.548;2024-02-16T09:10:58;12.25;;;4.68;;
77466;SDS011;66564;42.482;25.548;2024-02-16T09:13:31;14.90;;;4.22;;
77466;SDS011;66564;42.482;25.548;2024-02-16T09:16:01;8.70;;;3.95;;
77466;SDS011;66564;42.482;25.548;2024-02-16T09:18:28;6.40;;;3.15;;
77466;SDS011;66564;42.482;25.548;2024-02-16T09:20:54;5.07;;;3.30;;
77466;SDS011;66564;42.482;25.548;2024-02-16T09:23:19;6.40;;;3.22;;
77466;SDS011;66564;42.482;25.548;2024-02-16T09:25:45;4.80;;;2.90;;
77466;SDS011;66564;42.482;25.548;2024-02-16T09:28:14;4.47;;;2.95;;
77466;SDS011;66564;42.482;25.548;2024-02-16T09:30:39;6.95;;;3.30;;
77466;SDS011;66564;42.482;25.548;2024-02-16T09:33:08;6.22;;;4.00;;
77466;SDS011;66564;42.482;25.548;2024-02-16T09:35:33;5.63;;;4.00;;
77466;SDS011;66564;42.482;25.548;2024-02-16T09:37:59;8.65;;;6.07;;
77466;SDS011;66564;42.482;25.548;2024-02-16T09:40:24;9.77;;;5.80;;
77466;SDS011;66564;42.482;25.548;2024-02-16T09:42:51;6.15;;;4.38;;
77466;SDS011;66564;42.482;25.548;2024-02-16T09:45:17;7.80;;;4.82;;
77466;SDS011;66564;42.482;25.548;2024-02-16T09:47:42;9.00;;;4.30;;
77466;SDS011;66564;42.482;25.548;2024-02-16T09:50:09;8.10;;;3.83;;
77466;SDS011;66564;42.482;25.548;2024-02-16T09:52:38;5.63;;;3.92;;
77466;SDS011;66564;42.482;25.548;2024-02-16T09:55:05;5.90;;;3.83;;
77466;SDS011;66564;42.482;25.548;2024-02-16T09:57:35;7.25;;;4.18;;
77466;SDS011;66564;42.482;25.548;2024-02-16T10:00:01;14.95;;;4.13;;
77466;SDS011;66564;42.482;25.548;2024-02-16T10:02:38;7.13;;;4.50;;
77466;SDS011;66564;42.482;25.548;2024-02-16T10:05:13;5.97;;;4.13;;
77466;SDS011;66564;42.482;25.548;2024-02-16T10:07:40;8.45;;;4.13;;
77466;SDS011;66564;42.482;25.548;2024-02-16T10:10:06;9.43;;;4.80;;
77466;SDS011;66564;42.482;25.548;2024-02-16T10:12:31;8.45;;;4.63;;
77466;SDS011;66564;42.482;25.548;2024-02-16T10:14:57;7.05;;;4.60;;
77466;SDS011;66564;42.482;25.548;2024-02-16T10:17:24;9.20;;;4.35;;
77466;SDS011;66564;42.482;25.548;2024-02-16T10:19:56;5.55;;;4.43;;
77466;SDS011;66564;42.482;25.548;2024-02-16T10:22:22;4.97;;;3.80;;
77466;SDS011;66564;42.482;25.548;2024-02-16T10:24:48;5.78;;;4.03;;
77466;SDS011;66564;42.482;25.548;2024-02-16T10:27:18;7.43;;;4.82;;
77466;SDS011;66564;42.482;25.548;2024-02-16T10:29:44;4.63;;;3.58;;
77466;SDS011;66564;42.482;25.548;2024-02-16T10:32:14;5.82;;;3.90;;
77466;SDS011;66564;42.482;25.548;2024-02-16T10:34:42;6.30;;;4.03;;
77466;SDS011;66564;42.482;25.548;2024-02-16T10:37:08;6.80;;;3.95;;
77466;SDS011;66564;42.482;25.548;2024-02-16T10:39:35;5.75;;;4.47;;
77466;SDS011;66564;42.482;25.548;2024-02-16T10:42:03;8.23;;;4.47;;
77466;SDS011;66564;42.482;25.548;2024-02-16T10:44:34;8.90;;;5.15;;
77466;SDS011;66564;42.482;25.548;2024-02-16T10:47:05;18.30;;;5.40;;
77466;SDS011;66564;42.482;25.548;2024-02-16T10:49:31;13.70;;;4.18;;
77466;SDS011;66564;42.482;25.548;2024-02-16T10:51:56;16.27;;;4.40;;
77466;SDS011;66564;42.482;25.548;2024-02-16T10:54:28;6.95;;;4.53;;
77466;SDS011;66564;42.482;25.548;2024-02-16T10:56:56;6.43;;;4.43;;
77466;SDS011;66564;42.482;25.548;2024-02-16T10:59:21;8.50;;;4.95;;
77466;SDS011;66564;42.482;25.548;2024-02-16T11:01:47;6.93;;;4.78;;
77466;SDS011;66564;42.482;25.548;2024-02-16T11:04:18;7.15;;;4.40;;
77466;SDS011;66564;42.482;25.548;2024-02-16T11:09:50;8.93;;;3.50;;
77466;SDS011;66564;42.482;25.548;2024-02-16T11:12:11;6.07;;;4.20;;
77466;SDS011;66564;42.482;25.548;2024-02-16T11:14:41;6.50;;;4.00;;
77466;SDS011;66564;42.482;25.548;2024-02-16T11:17:11;7.55;;;4.43;;
77466;SDS011;66564;42.482;25.548;2024-02-16T11:19:42;5.78;;;3.70;;
77466;SDS011;66564;42.482;25.548;2024-02-16T11:22:07;6.40;;;4.30;;
77466;SDS011;66564;42.482;25.548;2024-02-16T11:24:34;8.23;;;4.13;;
77466;SDS011;66564;42.482;25.548;2024-02-16T11:27:07;8.52;;;4.90;;
77466;SDS011;66564;42.482;25.548;2024-02-16T11:29:38;7.70;;;4.15;;
77466;SDS011;66564;42.482;25.548;2024-02-16T11:32:08;5.93;;;3.70;;
77466;SDS011;66564;42.482;25.548;2024-02-16T11:34:33;5.15;;;3.55;;
77466;SDS011;66564;42.482;25.548;2024-02-16T11:37:00;7.07;;;3.90;;
77466;SDS011;66564;42.482;25.548;2024-02-16T11:39:26;5.53;;;3.30;;
77466;SDS011;66564;42.482;25.548;2024-02-16T11:41:59;5.97;;;3.97;;
77466;SDS011;66564;42.482;25.548;2024-02-16T11:44:32;5.18;;;3.38;;
77466;SDS011;66564;42.482;25.548;2024-02-16T11:47:00;7.05;;;3.78;;
77466;SDS011;66564;42.482;25.548;2024-02-16T11:49:27;6.38;;;4.15;;
77466;SDS011;66564;42.482;25.548;2024-02-16T11:51:54;6.00;;;3.50;;
77466;SDS011;66564;42.482;25.548;2024-02-16T11:54:20;7.82;;;3.85;;
77466;SDS011;66564;42.482;25.548;2024-02-16T11:56:46;7.72;;;4.10;;
77466;SDS011;66564;42.482;25.548;2024-02-16T11:59:16;9.98;;;4.45;;
77466;SDS011;66564;42.482;25.548;2024-02-16T12:01:52;7.03;;;3.80;;
77466;SDS011;66564;42.482;25.548;2024-02-16T12:04:28;5.38;;;3.58;;
77466;SDS011;66564;42.482;25.548;2024-02-16T12:09:24;6.45;;;4.43;;
77466;SDS011;66564;42.482;25.548;2024-02-16T12:11:50;18.45;;;5.15;;
77466;SDS011;66564;42.482;25.548;2024-02-16T12:14:18;9.73;;;3.75;;
77466;SDS011;66564;42.482;25.548;2024-02-16T12:16:50;5.88;;;3.45;;
77466;SDS011;66564;42.482;25.548;2024-02-16T12:19:20;6.20;;;3.92;;
77466;SDS011;66564;42.482;25.548;2024-02-16T12:21:54;5.80;;;3.60;;
77466;SDS011;66564;42.482;25.548;2024-02-16T12:24:20;6.00;;;3.88;;
77466;SDS011;66564;42.482;25.548;2024-02-16T12:26:46;6.25;;;3.55;;
77466;SDS011;66564;42.482;25.548;2024-02-16T12:29:12;8.75;;;3.50;;
77466;SDS011;66564;42.482;25.548;2024-02-16T12:31:41;4.95;;;3.00;;
77466;SDS011;66564;42.482;25.548;2024-02-16T12:34:08;4.47;;;3.17;;
77466;SDS011;66564;42.482;25.548;2024-02-16T12:36:34;4.57;;;3.50;;
77466;SDS011;66564;42.482;25.548;2024-02-16T12:39:00;5.93;;;3.10;;
77466;SDS011;66564;42.482;25.548;2024-02-16T12:41:26;7.18;;;3.42;;
77466;SDS011;66564;42.482;25.548;2024-02-16T12:43:51;4.40;;;3.28;;
77466;SDS011;66564;42.482;25.548;2024-02-16T12:46:19;5.55;;;3.60;;
77466;SDS011;66564;42.482;25.548;2024-02-16T12:48:44;4.85;;;3.33;;
77466;SDS011;66564;42.482;25.548;2024-02-16T12:51:10;5.00;;;3.22;;
77466;SDS011;66564;42.482;25.548;2024-02-16T12:53:36;5.47;;;3.30;;
77466;SDS011;66564;42.482;25.548;2024-02-16T12:56:08;5.20;;;3.50;;
77466;SDS011;66564;42.482;25.548;2024-02-16T12:58:38;6.47;;;3.90;;
77466;SDS011;66564;42.482;25.548;2024-02-16T13:01:03;6.07;;;3.28;;
77466;SDS011;66564;42.482;25.548;2024-02-16T13:03:35;4.93;;;3.15;;
77466;SDS011;66564;42.482;25.548;2024-02-16T13:06:04;6.55;;;3.63;;
77466;SDS011;66564;42.482;25.548;2024-02-16T13:08:31;4.32;;;2.92;;
77466;SDS011;66564;42.482;25.548;2024-02-16T13:10:57;4.53;;;3.17;;
77466;SDS011;66564;42.482;25.548;2024-02-16T13:13:23;6.82;;;3.67;;
77466;SDS011;66564;42.482;25.548;2024-02-16T13:15:49;5.60;;;4.20;;
77466;SDS011;66564;42.482;25.548;2024-02-16T13:18:15;6.00;;;4.32;;
77466;SDS011;66564;42.482;25.548;2024-02-16T13:20:41;4.97;;;3.22;;
77466;SDS011;66564;42.482;25.548;2024-02-16T13:23:07;6.43;;;3.63;;
77466;SDS011;66564;42.482;25.548;2024-02-16T13:25:32;6.43;;;3.22;;
77466;SDS011;66564;42.482;25.548;2024-02-16T13:27:58;5.78;;;3.97;;
77466;SDS011;66564;42.482;25.548;2024-02-16T13:30:24;6.75;;;3.58;;
77466;SDS011;66564;42.482;25.548;2024-02-16T13:32:50;4.88;;;3.15;;
77466;SDS011;66564;42.482;25.548;2024-02-16T13:35:16;9.27;;;3.38;;
77466;SDS011;66564;42.482;25.548;2024-02-16T13:37:41;5.95;;;3.47;;
77466;SDS011;66564;42.482;25.548;2024-02-16T13:40:07;6.32;;;3.53;;
77466;SDS011;66564;42.482;25.548;2024-02-16T13:42:38;5.75;;;3.30;;
77466;SDS011;66564;42.482;25.548;2024-02-16T13:45:04;5.70;;;3.58;;
77466;SDS011;66564;42.482;25.548;2024-02-16T13:47:30;5.75;;;3.22;;
77466;SDS011;66564;42.482;25.548;2024-02-16T13:49:55;7.43;;;3.63;;
77466;SDS011;66564;42.482;25.548;2024-02-16T13:52:22;10.38;;;4.07;;
77466;SDS011;66564;42.482;25.548;2024-02-16T13:54:49;6.40;;;3.40;;
77466;SDS011;66564;42.482;25.548;2024-02-16T13:57:14;6.03;;;3.70;;
77466;SDS011;66564;42.482;25.548;2024-02-16T13:59:41;5.20;;;3.90;;
77466;SDS011;66564;42.482;25.548;2024-02-16T14:02:07;5.70;;;2.97;;
77466;SDS011;66564;42.482;25.548;2024-02-16T14:04:34;5.07;;;3.65;;
77466;SDS011;66564;42.482;25.548;2024-02-16T14:07:00;19.50;;;3.83;;
77466;SDS011;66564;42.482;25.548;2024-02-16T14:09:25;5.32;;;3.60;;
77466;SDS011;66564;42.482;25.548;2024-02-16T14:11:51;7.35;;;3.65;;
77466;SDS011;66564;42.482;25.548;2024-02-16T14:14:19;8.27;;;3.55;;
77466;SDS011;66564;42.482;25.548;2024-02-16T14:16:44;6.38;;;3.63;;
77466;SDS011;66564;42.482;25.548;2024-02-16T14:19:10;4.63;;;3.08;;
77466;SDS011;66564;42.482;25.548;2024-02-16T14:21:35;4.85;;;3.22;;
77466;SDS011;66564;42.482;25.548;2024-02-16T14:24:01;4.32;;;3.35;;
77466;SDS011;66564;42.482;25.548;2024-02-16T14:26:26;5.68;;;3.63;;
77466;SDS011;66564;42.482;25.548;2024-02-16T14:28:51;4.97;;;3.38;;
77466;SDS011;66564;42.482;25.548;2024-02-16T14:31:17;7.07;;;3.53;;
77466;SDS011;66564;42.482;25.548;2024-02-16T14:33:45;8.10;;;3.70;;